Weather reports worldwide

Advertisment
K13 Alpha, Netherlands (6252): temperature & dewpoint: 09.12.2019 01:00:00 - 15.12.2019 01:00:00 (CET)K13 Alpha, Netherlands (6252): water temperature: 09.12.2019 01:00:00 - 15.12.2019 01:00:00 (CET)K13 Alpha, Netherlands (6252): wind speed & gusts: 09.12.2019 01:00:00 - 15.12.2019 01:00:00 (CET)K13 Alpha, Netherlands (6252): wind direction: 09.12.2019 01:00:00 - 15.12.2019 01:00:00 (CET)K13 Alpha, Netherlands (6252): reduced air pressure: 09.12.2019 01:00:00 - 15.12.2019 01:00:00 (CET)
Date & Time tt [°C] td [°C] tw [°C] ff [km/h] ff [kn] fx [km/h] fx [kn] dd ppp [hPa]
15.12.2019 01:00:00 8,6 5,7 9,6 54 29 83 45 SSW 988,4
15.12.2019 00:00:00 9,0 3,2 9,7 42 23 50 27 SSW 989,9
14.12.2019 23:00:00 8,4 2,2 9,8 54 29 58 31 SW 991,4
14.12.2019 22:00:00 8,1 1,6 9,9 57 31 61 33 WSW 991,7
14.12.2019 21:00:00 7,4 0,9 10,0 67 36 65 35 WSW 991,9
14.12.2019 20:00:00 7,2 0,4 10,0 63 34 68 37 W 991,6
14.12.2019 19:00:00 7,2 0,1 9,9 70 38 72 39 W 991,0
14.12.2019 18:00:00 7,2 1,0 9,8 70 38 83 45 W 989,5
14.12.2019 17:00:00 7,0 1,7 9,8 67 36 83 45 W 988,5
14.12.2019 16:00:00 4,8 1,7 9,7 76 41 90 49 W 987,5
14.12.2019 15:00:00 7,6 1,7 9,7 57 31 61 33 WSW 986,5
14.12.2019 14:00:00 7,6 1,6 9,7 57 31 68 37 WSW 985,5
14.12.2019 13:00:00 7,4 0,8 9,7 68 37 76 41 W 985,3
14.12.2019 12:00:00 7,3 1,5 9,8 70 38 76 41 W 984,8
14.12.2019 11:00:00 6,9 1,4 9,8 70 38 79 43 W 984,1
14.12.2019 10:00:00 6,9 1,7 9,9 74 40 79 43 W 983,1
14.12.2019 09:00:00 7,1 2,5 9,9 74 40 76 41 W 981,9
14.12.2019 08:00:00 7,0 2,5 10,0 72 39 76 41 W 981,0
14.12.2019 07:00:00 7,4 3,2 10,0 63 34 65 35 W 980,0
14.12.2019 06:00:00 7,4 2,9 9,9 63 34 61 33 W 979,4
14.12.2019 05:00:00 7,7 3,1 9,8 54 29 58 31 W 979,0
14.12.2019 04:00:00 7,4 2,9 9,8 48 26 50 27 W 978,4
14.12.2019 03:00:00 7,3 2,7 9,7 44 24 54 29 W 978,2
14.12.2019 02:00:00 6,8 2,7 9,7 57 31 58 31 W 978,1
14.12.2019 01:00:00 7,1 2,2 9,7 54 29 54 29 WSW 978,4
14.12.2019 00:00:00 7,6 2,7 9,8 50 27 54 29 WSW 978,4
13.12.2019 23:00:00 7,8 3,6 9,9 54 29 58 31 W 978,7
13.12.2019 22:00:00 7,8 3,2 9,9 59 32 61 33 WSW 978,9
13.12.2019 21:00:00 8,1 4,1 9,9 54 29 54 29 WSW 979,3
13.12.2019 20:00:00 7,6 4,6 9,9 43 23 58 31 W 979,7
13.12.2019 19:00:00 8,5 4,4 10,0 54 29 61 33 W 979,6
13.12.2019 18:00:00 8,6 4,4 9,9 46 25 54 29 W 979,4
13.12.2019 17:00:00 8,1 4,6 9,9 50 27 50 27 W 979,2
13.12.2019 16:00:00 8,0 4,9 9,8 48 26 50 27 W 978,7
13.12.2019 15:00:00 7,8 4,3 9,7 39 21 40 21 W 978,1
13.12.2019 14:00:00 7,8 3,8 9,6 31 17 36 19 WNW 977,4
13.12.2019 13:00:00 8,0 3,8 9,6 37 20 40 21 WNW 976,8
13.12.2019 12:00:00 8,0 3,9 9,5 31 17 32 18 WNW 976,0
13.12.2019 11:00:00 8,2 5,6 9,5 26 14 25 14 WNW 975,2
13.12.2019 10:00:00 8,5 6,2 9,8 21 11 22 12 NW 974,2
13.12.2019 09:00:00 8,5 6,3 10,0 13 7 14 8 NNW 972,9
13.12.2019 08:00:00 8,4 6,1 10,0 8 4 11 6 S 972,1
13.12.2019 07:00:00 8,7 6,4 10,2 13 7 18 10 W 971,4
13.12.2019 06:00:00 8,9 6,2 10,2 16 9 25 14 WSW 971,0
13.12.2019 05:00:00 8,8 6,1 10,2 29 16 36 19 SW 970,9
13.12.2019 04:00:00 8,7 6,2 10,1 37 20 40 21 SW 971,2
13.12.2019 03:00:00 8,4 6,1 10,0 42 23 43 23 WSW 970,8
13.12.2019 02:00:00 8,5 6,8 9,9 36 19 68 37 SW 970,3
13.12.2019 01:00:00 7,3 5,5 9,8 68 37 76 41 SSE 972,0
13.12.2019 00:00:00 7,1 4,7 9,8 74 40 76 41 SSE 974,5
12.12.2019 23:00:00 7,3 5,2 9,8 76 41 79 43 S 976,5
12.12.2019 22:00:00 7,5 4,9 9,9 72 39 79 43 S 978,5
12.12.2019 21:00:00 7,0 5,5 10,0 76 41 76 41 S 980,3
12.12.2019 20:00:00 6,9 5,2 10,2 78 42 76 41 S 982,1
12.12.2019 19:00:00 7,5 4,8 10,2 76 41 76 41 S 983,6
12.12.2019 18:00:00 6,9 5,5 10,2 74 40 76 41 S 985,4
12.12.2019 17:00:00 7,3 4,4 10,1 63 34 65 35 S 987,0
12.12.2019 16:00:00 7,7 4,3 10,0 61 33 61 33 S 988,6
12.12.2019 15:00:00 7,9 3,5 9,8 59 32 58 31 S 990,5
12.12.2019 14:00:00 7,5 3,1 9,7 52 28 58 31 S 992,0
12.12.2019 13:00:00 7,8 1,6 9,5 44 24 50 27 SSW 993,7
12.12.2019 12:00:00 7,5 1,0 9,5 39 21 43 23 SSW 995,3
12.12.2019 11:00:00 6,9 0,5 9,5 39 21 43 23 SSW 996,6
12.12.2019 10:00:00 6,7 0,5 9,6 35 19 36 19 SSW 997,4
12.12.2019 09:00:00 6,4 0,7 9,8 31 17 32 18 SW 998,0
12.12.2019 08:00:00 6,3 1,9 10,0 28 15 29 16 WSW 998,5
12.12.2019 07:00:00 6,1 2,7 10,1 24 13 29 16 WSW 998,9
12.12.2019 06:00:00 6,2 1,9 10,2 29 16 32 18 W 999,0
12.12.2019 05:00:00 6,3 2,8 10,1 29 16 36 19 W 999,1
12.12.2019 04:00:00 6,5 2,2 9,9 34 18 36 19 W 999,5
12.12.2019 03:00:00 6,7 2,0 9,8 34 18 36 19 W 999,4
12.12.2019 02:00:00 7,0 3,0 9,7 29 16 36 19 WNW 999,2
12.12.2019 01:00:00 6,9 3,6 9,5 26 14 29 16 W 999,4
12.12.2019 00:00:00 7,2 3,6 9,5 31 17 32 18 W 999,6
11.12.2019 23:00:00 7,6 3,9 9,5 34 18 32 18 W 999,6
11.12.2019 22:00:00 8,3 3,7 9,7 34 18 36 19 WSW 999,8
11.12.2019 21:00:00 8,4 2,2 9,9 37 20 54 29 WSW 1000,0
11.12.2019 20:00:00 9,0 3,5 10,0 37 20 36 19 SW 1000,3
11.12.2019 19:00:00 9,0 3,6 10,2 39 21 40 21 SW 1000,8
11.12.2019 18:00:00 8,7 3,8 10,2 41 22 43 23 SW 1001,3
11.12.2019 17:00:00 8,5 3,7 10,2 37 20 36 19 SW 1001,5
11.12.2019 16:00:00 8,3 3,8 10,1 37 20 36 19 SW 1001,9
11.12.2019 15:00:00 8,3 3,3 10,0 35 19 36 19 SW 1002,6
11.12.2019 14:00:00 8,0 3,0 9,8 34 18 36 19 SW 1003,1
11.12.2019 13:00:00 7,7 4,1 9,7 34 18 32 18 WSW 1003,8
11.12.2019 12:00:00 7,6 3,9 9,6 29 16 32 18 WSW 1004,7
11.12.2019 11:00:00 7,4 3,6 9,6 29 16 32 18 WSW 1005,6
11.12.2019 10:00:00 7,4 3,6 9,6 34 18 32 18 WSW 1005,6
11.12.2019 09:00:00 7,6 3,5 9,8 31 17 32 18 WSW 1005,8
11.12.2019 08:00:00 7,6 3,1 10,1 34 18 36 19 W 1005,8
11.12.2019 07:00:00 7,8 3,1 10,3 37 20 40 21 W 1005,9
11.12.2019 06:00:00 8,1 3,3 10,3 41 22 47 25 W 1005,9
11.12.2019 05:00:00 8,5 3,3 10,3 48 26 50 27 W 1005,7
11.12.2019 04:00:00 8,8 4,1 10,3 52 28 54 29 W 1005,4
11.12.2019 03:00:00 8,9 3,4 10,3 50 27 54 29 W 1005,2
11.12.2019 02:00:00 9,0 4,3 10,3 44 24 58 31 W 1004,5
11.12.2019 01:00:00 9,5 5,9 10,3 50 27 58 31 W 1003,8
11.12.2019 00:00:00 9,0 7,5 10,4 76 41 86 47 WSW 1003,3
10.12.2019 23:00:00 11,0 8,5 10,4 85 46 97 53 SSW 1001,9
10.12.2019 22:00:00 10,7 8,1 10,4 85 46 97 53 SSW 1002,3
10.12.2019 21:00:00 10,3 7,8 10,4 85 46 94 51 SSW 1003,0
10.12.2019 20:00:00 9,7 7,0 10,5 85 46 86 47 SSW 1004,1
10.12.2019 19:00:00 9,6 6,8 10,5 81 44 86 47 SSW 1005,5
10.12.2019 18:00:00 9,2 6,9 10,4 81 44 86 47 SSW 1006,8
10.12.2019 17:00:00 9,1 7,1 10,4 80 43 83 45 SSW 1008,2
10.12.2019 16:00:00 9,0 7,1 10,4 76 41 79 43 SSW 1009,4
10.12.2019 15:00:00 9,1 6,2 - 74 40 79 43 SSW 1011,1
10.12.2019 14:00:00 9,4 5,5 10,3 72 39 72 39 SSW 1012,9
10.12.2019 13:00:00 9,5 5,6 10,2 63 34 68 37 SSW 1014,7
10.12.2019 12:00:00 9,1 5,1 10,1 63 34 65 35 SSW 1016,6
10.12.2019 11:00:00 9,0 3,8 10,0 57 31 58 31 SSW 1018,5
10.12.2019 10:00:00 8,5 3,2 10,0 52 28 54 29 SSW 1019,1
10.12.2019 09:00:00 8,0 3,0 10,0 50 27 50 27 SSW 1020,2
10.12.2019 08:00:00 7,6 0,8 10,2 42 23 43 23 SW 1020,8
10.12.2019 07:00:00 7,3 0,0 10,2 37 20 40 21 SW 1021,3
10.12.2019 06:00:00 7,2 1,6 10,3 31 17 32 18 WSW 1021,9
10.12.2019 05:00:00 7,3 0,4 10,3 24 13 29 16 WSW 1022,1
10.12.2019 04:00:00 7,5 1,7 10,3 28 15 29 16 W 1022,3
10.12.2019 03:00:00 7,6 1,2 10,2 18 10 29 16 WNW 1022,2
10.12.2019 02:00:00 7,6 1,8 10,1 26 14 36 19 NW 1022,2
10.12.2019 01:00:00 7,6 1,5 10,0 28 15 43 23 NNW 1022,1
10.12.2019 00:00:00 7,0 2,2 10,0 34 18 50 27 NW 1021,2
09.12.2019 23:00:00 7,4 0,4 9,9 42 23 47 25 NNW 1020,4
09.12.2019 22:00:00 7,8 -0,3 9,9 52 28 58 31 NNW 1019,2
09.12.2019 21:00:00 8,0 0,2 10,0 54 29 61 33 NNW 1018,5
09.12.2019 20:00:00 8,1 1,0 10,0 55 30 58 31 NNW 1016,9
09.12.2019 19:00:00 7,8 2,2 10,2 55 30 76 41 NNW 1015,5
09.12.2019 18:00:00 7,5 2,9 10,3 65 35 65 35 N 1013,9
09.12.2019 17:00:00 7,6 1,7 10,4 68 37 76 41 N 1012,0
09.12.2019 16:00:00 8,6 2,2 10,4 65 35 72 39 NNW 1009,6
09.12.2019 15:00:00 8,4 2,7 10,3 70 38 79 43 N 1007,5
09.12.2019 14:00:00 8,6 3,2 10,2 72 39 79 43 N 1005,0
09.12.2019 13:00:00 8,4 2,1 10,2 70 38 97 53 N 1002,3
09.12.2019 12:00:00 7,7 3,8 10,2 76 41 83 45 N 999,2
09.12.2019 11:00:00 8,5 6,3 10,2 29 16 40 21 NNW 995,7
09.12.2019 10:00:00 8,3 5,3 10,2 42 23 47 25 W 993,8
09.12.2019 09:00:00 8,3 4,9 10,3 46 25 50 27 WNW 993,2
09.12.2019 08:00:00 8,4 5,2 10,4 52 28 50 27 WNW 992,2
09.12.2019 07:00:00 8,0 4,9 10,5 44 24 47 25 WNW 991,0
09.12.2019 06:00:00 7,7 4,3 10,5 44 24 47 25 W 990,2
09.12.2019 05:00:00 7,7 3,8 10,5 41 22 47 25 W 989,4
09.12.2019 04:00:00 8,0 3,6 10,5 48 26 54 29 WSW 989,7
09.12.2019 03:00:00 8,0 3,6 10,4 55 30 58 31 WSW 989,9
09.12.2019 02:00:00 8,2 3,8 10,4 59 32 61 33 WSW 990,1
09.12.2019 01:00:00 8,1 3,5 10,3 61 33 65 35 WSW 990,2

tt = temperature
td = dewpoint
tw = water temperature
ff = wind speed
fx = gusts
dd = wind direction
ppp = reduced air pressure

Next stations